createdAt,value
2014-10-06T00:00:52.563Z,13.48
2014-10-06T00:01:57.251Z,13.44
2014-10-06T00:03:01.957Z,13.66
2014-10-06T00:04:06.663Z,13.6
2014-10-06T00:05:11.649Z,13.6
2014-10-06T00:06:16.338Z,13.51
2014-10-06T00:07:21.029Z,13.56
2014-10-06T00:08:25.717Z,13.84
2014-10-06T00:09:30.407Z,14.14
2014-10-06T00:10:35.393Z,14.28
2014-10-06T00:11:40.395Z,14.4
2014-10-06T00:12:45.086Z,13.9
2014-10-06T00:13:49.119Z,13.8
2014-10-06T00:14:53.808Z,13.79
2014-10-06T00:15:58.795Z,13.68
2014-10-06T00:17:03.499Z,13.66
2014-10-06T00:18:08.471Z,13.6
2014-10-06T00:19:13.176Z,13.7
2014-10-06T00:20:17.865Z,13.63
2014-10-06T00:21:22.555Z,13.58
2014-10-06T00:22:27.244Z,13.61
2014-10-06T00:23:31.951Z,13.58
2014-10-06T00:24:36.655Z,13.54
2014-10-06T00:25:41.641Z,13.48
2014-10-06T00:26:46.332Z,13.45
2014-10-06T00:27:51.021Z,13.54
2014-10-06T00:28:56.007Z,13.53
2014-10-06T00:30:00.697Z,13.55
2014-10-06T00:31:05.402Z,13.39
2014-10-06T00:32:10.388Z,13.49
2014-10-06T00:33:15.078Z,13.44
2014-10-06T00:34:20.064Z,13.5
2014-10-06T00:35:24.754Z,13.46
2014-10-06T00:36:29.459Z,13.45
2014-10-06T00:37:34.461Z,13.4
2014-10-06T00:38:39.150Z,13.79
2014-10-06T00:39:43.840Z,13.83
2014-10-06T00:40:48.545Z,13.96
2014-10-06T00:41:53.235Z,14.08
2014-10-06T00:42:58.222Z,14.3
2014-10-06T00:44:02.910Z,14.34
2014-10-06T00:45:07.897Z,13.96
2014-10-06T00:46:12.603Z,13.75
2014-10-06T00:47:17.292Z,13.85
2014-10-06T00:48:22.279Z,13.76
2014-10-06T00:49:26.984Z,13.61
2014-10-06T00:50:31.673Z,13.58
2014-10-06T00:51:36.378Z,13.59
2014-10-06T00:52:41.068Z,13.88
2014-10-06T00:53:45.758Z,14.18
2014-10-06T00:54:50.447Z,14.1
2014-10-06T00:55:55.152Z,13.88
2014-10-06T00:56:59.842Z,13.78
2014-10-06T00:58:04.548Z,13.83
2014-10-06T00:59:09.533Z,13.8
2014-10-06T01:00:14.223Z,13.99
2014-10-06T01:01:18.913Z,13.86
2014-10-06T01:02:23.602Z,13.7
2014-10-06T01:03:28.308Z,13.73
2014-10-06T01:04:32.996Z,13.71
2014-10-06T01:05:37.701Z,13.64
2014-10-06T01:06:42.391Z,13.67
2014-10-06T01:07:47.097Z,13.7
2014-10-06T01:08:51.802Z,13.75
2014-10-06T01:09:56.492Z,13.78
2014-10-06T01:11:01.181Z,13.8
2014-10-06T01:12:06.168Z,13.74
2014-10-06T01:13:10.170Z,13.74
2014-10-06T01:14:14.859Z,13.78
2014-10-06T01:15:19.549Z,13.88
2014-10-06T01:16:24.255Z,13.78
2014-10-06T01:17:28.944Z,13.76
2014-10-06T01:18:33.649Z,13.85
2014-10-06T01:19:38.353Z,13.74
2014-10-06T01:20:43.059Z,13.63
2014-10-06T01:21:47.748Z,13.71
2014-10-06T01:22:52.453Z,14.14
2014-10-06T01:23:57.143Z,14.34
2014-10-06T01:25:01.833Z,14.58
2014-10-06T01:26:06.820Z,13.96
2014-10-06T01:27:11.525Z,13.86
2014-10-06T01:28:16.511Z,13.84
2014-10-06T01:29:21.232Z,13.91
2014-10-06T01:30:25.921Z,13.94
2014-10-06T01:31:30.612Z,13.93
2014-10-06T01:32:35.597Z,13.78
2014-10-06T01:33:40.303Z,13.71
2014-10-06T01:34:44.992Z,14.11
2014-10-06T01:35:49.979Z,14.48
2014-10-06T01:36:54.965Z,14.23
2014-10-06T01:37:59.952Z,14.11
2014-10-06T01:39:04.657Z,13.9
2014-10-06T01:40:09.346Z,13.88
2014-10-06T01:41:14.051Z,13.89
2014-10-06T01:42:18.741Z,13.81
2014-10-06T01:43:23.728Z,13.86
2014-10-06T01:44:28.417Z,13.68
2014-10-06T01:45:33.121Z,13.64
2014-10-06T01:46:37.812Z,13.59
2014-10-06T01:47:42.501Z,13.67
2014-10-06T01:48:47.489Z,13.68
2014-10-06T01:49:52.193Z,13.63
2014-10-06T01:50:56.882Z,13.64
2014-10-06T01:52:01.587Z,13.52
2014-10-06T01:53:06.278Z,13.7
2014-10-06T01:54:11.264Z,14.03
2014-10-06T01:55:15.954Z,14.03
2014-10-06T01:56:20.658Z,13.82
2014-10-06T01:57:25.348Z,13.68
2014-10-06T01:58:30.334Z,13.59
2014-10-06T01:59:35.305Z,13.49
2014-10-06T02:00:40.010Z,13.5
2014-10-06T02:01:44.997Z,13.49
2014-10-06T02:02:49.686Z,13.46
2014-10-06T02:03:54.392Z,13.36
2014-10-06T02:04:59.097Z,13.44
2014-10-06T02:06:04.083Z,13.72
2014-10-06T02:07:08.773Z,13.76
2014-10-06T02:08:13.478Z,13.66
2014-10-06T02:09:18.167Z,13.58
2014-10-06T02:10:22.857Z,13.48
2014-10-06T02:11:27.547Z,13.44
2014-10-06T02:12:32.251Z,13.3
2014-10-06T02:13:36.942Z,13.29
2014-10-06T02:14:41.647Z,13.4
2014-10-06T02:15:46.336Z,13.31
2014-10-06T02:16:51.026Z,13.31
2014-10-06T02:17:55.028Z,13.38
2014-10-06T02:18:59.733Z,13.38
2014-10-06T02:20:04.423Z,13.59
2014-10-06T02:21:09.112Z,13.36
2014-10-06T02:22:13.802Z,13.52
2014-10-06T02:23:18.491Z,13.48
2014-10-06T02:24:23.197Z,13.38
2014-10-06T02:25:27.887Z,13.26
2014-10-06T02:26:32.591Z,13.53
2014-10-06T02:27:37.297Z,13.85
2014-10-06T02:28:41.986Z,14.06
2014-10-06T02:29:46.692Z,13.98
2014-10-06T02:30:51.380Z,13.69
2014-10-06T02:31:56.071Z,13.55
2014-10-06T02:33:00.760Z,13.4
2014-10-06T02:34:05.450Z,13.24
2014-10-06T02:35:10.155Z,13.19
2014-10-06T02:36:15.141Z,13.2
2014-10-06T02:37:19.846Z,13.26
2014-10-06T02:38:24.551Z,13.32
2014-10-06T02:39:28.553Z,13.66
2014-10-06T02:40:33.259Z,13.68
2014-10-06T02:41:37.948Z,13.79
2014-10-06T02:42:42.637Z,13.98
2014-10-06T02:43:47.327Z,13.59
2014-10-06T02:44:52.016Z,13.32
2014-10-06T02:45:56.723Z,13.28
2014-10-06T02:47:01.709Z,13.19
2014-10-06T02:48:06.398Z,13.19
2014-10-06T02:49:11.104Z,13.18
2014-10-06T02:50:15.793Z,13.26
2014-10-06T02:51:20.498Z,13.15
2014-10-06T02:52:25.188Z,13.05
2014-10-06T02:53:30.174Z,13
2014-10-06T02:54:35.160Z,12.93
2014-10-06T02:55:40.168Z,12.98
2014-10-06T02:56:45.176Z,12.98
2014-10-06T02:57:49.906Z,12.99
2014-10-06T02:58:54.647Z,13
2014-10-06T02:59:59.378Z,12.94
2014-10-06T03:01:04.098Z,12.91
2014-10-06T03:02:08.802Z,12.97
2014-10-06T03:03:13.505Z,13
2014-10-06T03:04:18.506Z,13.48
2014-10-06T03:05:23.207Z,13.74
2014-10-06T03:06:27.918Z,13.74
2014-10-06T03:07:32.612Z,13.64
2014-10-06T03:08:37.306Z,13.53
2014-10-06T03:09:42.001Z,13.52
2014-10-06T03:10:46.991Z,13.35
2014-10-06T03:11:51.713Z,13.16
2014-10-06T03:12:56.404Z,13.07
2014-10-06T03:14:01.408Z,13.05
2014-10-06T03:15:06.099Z,13.02
2014-10-06T03:16:11.087Z,13.05
2014-10-06T03:17:15.777Z,12.95
2014-10-06T03:18:20.468Z,12.96
2014-10-06T03:19:25.157Z,13.44
2014-10-06T03:20:29.848Z,13.38
2014-10-06T03:21:34.850Z,13.16
2014-10-06T03:22:39.539Z,13.06
2014-10-06T03:23:44.244Z,12.99
2014-10-06T03:24:49.528Z,13.16
2014-10-06T03:25:54.219Z,13.32
2014-10-06T03:26:59.206Z,13.68
2014-10-06T03:28:03.896Z,13.8
2014-10-06T03:29:08.585Z,13.81
2014-10-06T03:30:13.274Z,13.93
2014-10-06T03:31:17.979Z,14.07
2014-10-06T03:32:22.967Z,14.12
2014-10-06T03:33:27.656Z,14.05
2014-10-06T03:34:32.346Z,14.2
2014-10-06T03:35:37.051Z,13.54
2014-10-06T03:36:41.740Z,13.32
2014-10-06T03:37:46.430Z,13.3
2014-10-06T03:38:51.416Z,13.71
2014-10-06T03:39:56.106Z,13.77
2014-10-06T03:41:00.811Z,13.42
2014-10-06T03:42:05.500Z,13.08
2014-10-06T03:43:10.190Z,13.1
2014-10-06T03:44:14.879Z,13.01
2014-10-06T03:45:19.881Z,12.94
2014-10-06T03:46:24.571Z,12.84
2014-10-06T03:47:28.589Z,12.91
2014-10-06T03:48:33.279Z,12.88
2014-10-06T03:49:37.280Z,12.86
2014-10-06T03:50:42.266Z,12.84
2014-10-06T03:51:46.957Z,12.78
2014-10-06T03:52:51.646Z,12.73
2014-10-06T03:53:56.632Z,12.72
2014-10-06T03:55:01.322Z,12.79
2014-10-06T03:56:06.012Z,12.72
2014-10-06T03:57:10.716Z,13.02
2014-10-06T03:58:15.703Z,13.22
2014-10-06T03:59:20.689Z,13.54
2014-10-06T04:00:25.379Z,13.76
2014-10-06T04:01:30.085Z,13.7
2014-10-06T04:02:34.775Z,13.49
2014-10-06T04:03:39.463Z,13.32
2014-10-06T04:04:44.153Z,13.34
2014-10-06T04:05:49.139Z,13.52
2014-10-06T04:06:53.828Z,13.59
2014-10-06T04:07:58.535Z,13.4
2014-10-06T04:09:03.240Z,13.76
2014-10-06T04:10:07.929Z,13.58
2014-10-06T04:11:12.633Z,13.31
2014-10-06T04:12:17.324Z,13.15
2014-10-06T04:13:22.013Z,13.17
2014-10-06T04:14:26.703Z,13.16
2014-10-06T04:15:31.392Z,13.41
2014-10-06T04:16:36.082Z,13.36
2014-10-06T04:17:40.771Z,13.31
2014-10-06T04:18:45.476Z,13.23
2014-10-06T04:19:50.464Z,13.13
2014-10-06T04:20:55.168Z,13.09
2014-10-06T04:22:00.155Z,13.12
2014-10-06T04:23:04.845Z,13.11
2014-10-06T04:24:09.550Z,13.06
2014-10-06T04:25:14.239Z,13.06
2014-10-06T04:26:18.928Z,12.94
2014-10-06T04:27:23.618Z,12.96
2014-10-06T04:28:28.605Z,12.96
2014-10-06T04:29:33.294Z,12.98
2014-10-06T04:30:37.984Z,13.13
2014-10-06T04:31:43.267Z,13.19
2014-10-06T04:32:47.972Z,12.97
2014-10-06T04:33:52.662Z,13.26
2014-10-06T04:34:57.367Z,13.51
2014-10-06T04:36:02.338Z,13.69
2014-10-06T04:37:07.043Z,13.54
2014-10-06T04:38:12.029Z,13.56
2014-10-06T04:39:17.015Z,13.68
2014-10-06T04:40:21.706Z,13.84
2014-10-06T04:41:25.707Z,13.96
2014-10-06T04:42:30.413Z,13.89
2014-10-06T04:43:35.103Z,14.11
2014-10-06T04:44:39.791Z,13.92
2014-10-06T04:45:44.497Z,13.68
2014-10-06T04:46:49.187Z,13.5
2014-10-06T04:47:53.876Z,13.44
2014-10-06T04:48:58.863Z,13.46
2014-10-06T04:50:03.552Z,13.2
2014-10-06T04:51:08.242Z,13.28
2014-10-06T04:52:12.931Z,13.16
2014-10-06T04:53:17.917Z,13.13
2014-10-06T04:54:22.624Z,13.61
2014-10-06T04:55:27.609Z,13.93
2014-10-06T04:56:32.314Z,14.28
2014-10-06T04:57:37.004Z,14.3
2014-10-06T04:58:41.694Z,14.4
2014-10-06T04:59:46.384Z,14.28
2014-10-06T05:00:51.073Z,14.3
2014-10-06T05:01:55.763Z,14.6
2014-10-06T05:03:00.749Z,14.62
2014-10-06T05:04:05.454Z,14.12
2014-10-06T05:05:10.159Z,13.78
2014-10-06T05:06:14.864Z,13.58
2014-10-06T05:07:19.554Z,13.26
2014-10-06T05:08:24.541Z,13.35
2014-10-06T05:09:29.527Z,13.32
2014-10-06T05:10:34.217Z,13.4
2014-10-06T05:11:38.907Z,13.4
2014-10-06T05:12:43.893Z,13.34
2014-10-06T05:13:48.598Z,13.19
2014-10-06T05:14:53.287Z,13.1
2014-10-06T05:15:58.274Z,13.13
2014-10-06T05:17:02.963Z,13.02
2014-10-06T05:18:07.964Z,13.03
2014-10-06T05:19:12.654Z,13.05
2014-10-06T05:20:17.344Z,13.06
2014-10-06T05:21:22.050Z,13.1
2014-10-06T05:22:26.739Z,12.98
2014-10-06T05:23:31.429Z,13.01
2014-10-06T05:24:36.415Z,13.03
2014-10-06T05:25:41.104Z,13.48
2014-10-06T05:26:45.810Z,13.72
2014-10-06T05:27:50.500Z,13.66
2014-10-06T05:28:55.501Z,13.58
2014-10-06T05:30:00.192Z,13.59
2014-10-06T05:31:04.880Z,13.89
2014-10-06T05:32:09.585Z,14.22
2014-10-06T05:33:14.276Z,14.24
2014-10-06T05:34:18.964Z,14.3
2014-10-06T05:35:23.951Z,14.21
2014-10-06T05:36:28.641Z,14.47
2014-10-06T05:37:33.346Z,14.54
2014-10-06T05:38:38.036Z,14.31
2014-10-06T05:39:42.726Z,14.04
2014-10-06T05:40:47.430Z,13.64
2014-10-06T05:41:52.135Z,13.44
2014-10-06T05:42:56.856Z,13.46
2014-10-06T05:44:01.546Z,13.61
2014-10-06T05:45:06.235Z,13.97
2014-10-06T05:46:11.223Z,14.02
2014-10-06T05:47:16.209Z,13.65
2014-10-06T05:48:21.194Z,13.65
2014-10-06T05:49:26.181Z,13.5
2014-10-06T05:50:30.887Z,13.37
2014-10-06T05:51:35.576Z,13.69
2014-10-06T05:52:40.281Z,13.95
2014-10-06T05:53:44.971Z,13.76
2014-10-06T05:54:49.957Z,13.59
2014-10-06T05:55:54.944Z,13.4
2014-10-06T05:56:59.649Z,13.44
2014-10-06T05:58:04.338Z,13.44
2014-10-06T05:59:09.029Z,13.44
2014-10-06T06:00:13.717Z,13.36
2014-10-06T06:01:18.407Z,13.4
2014-10-06T06:02:23.112Z,13.4
2014-10-06T06:03:27.802Z,13.55
2014-10-06T06:04:32.508Z,13.73
2014-10-06T06:05:37.493Z,13.62
2014-10-06T06:06:42.198Z,13.57
2014-10-06T06:07:46.889Z,13.65
2014-10-06T06:08:51.578Z,13.52
2014-10-06T06:09:56.283Z,13.5
2014-10-06T06:11:00.973Z,13.52
2014-10-06T06:12:05.662Z,13.71
2014-10-06T06:13:10.649Z,14
2014-10-06T06:14:15.338Z,14.38
2014-10-06T06:15:20.059Z,14.63
2014-10-06T06:16:24.764Z,14.64
2014-10-06T06:17:29.454Z,14.37
2014-10-06T06:18:34.441Z,14.16
2014-10-06T06:19:39.129Z,14.12
2014-10-06T06:20:43.820Z,14.2
2014-10-06T06:21:48.508Z,14.17
2014-10-06T06:22:53.213Z,13.97
2014-10-06T06:23:57.903Z,13.97
2014-10-06T06:25:02.889Z,14.04
2014-10-06T06:26:07.876Z,13.89
2014-10-06T06:27:12.582Z,13.91
2014-10-06T06:28:17.568Z,13.9
2014-10-06T06:29:22.258Z,13.85
2014-10-06T06:30:27.244Z,13.92
2014-10-06T06:31:32.230Z,14.25
2014-10-06T06:32:36.936Z,14.61
2014-10-06T06:33:41.922Z,14.76
2014-10-06T06:34:46.611Z,14.98
2014-10-06T06:35:51.301Z,15.14
2014-10-06T06:36:56.006Z,15.17
2014-10-06T06:38:00.992Z,15.12
2014-10-06T06:39:05.699Z,15.14
2014-10-06T06:40:10.388Z,15.24
2014-10-06T06:41:15.078Z,15.39
2014-10-06T06:42:19.782Z,14.95
2014-10-06T06:43:24.472Z,14.7
2014-10-06T06:44:29.177Z,14.58
2014-10-06T06:45:33.867Z,14.58
2014-10-06T06:46:38.573Z,14.6
2014-10-06T06:47:43.261Z,14.52
2014-10-06T06:48:47.951Z,14.39
2014-10-06T06:49:52.656Z,14.42
2014-10-06T06:50:57.362Z,14.33
2014-10-06T06:52:02.051Z,14.07
2014-10-06T06:53:07.037Z,13.95
2014-10-06T06:54:11.727Z,13.42
2014-10-06T06:55:16.417Z,13.91
2014-10-06T06:56:21.107Z,13.93
2014-10-06T06:57:25.812Z,13.74
2014-10-06T06:58:30.517Z,13.64
2014-10-06T06:59:35.206Z,14.04
2014-10-06T07:00:40.207Z,14.13
2014-10-06T07:01:44.929Z,14.23
2014-10-06T07:02:49.619Z,14.2
2014-10-06T07:03:54.308Z,14.24
2014-10-06T07:04:58.998Z,14.31
2014-10-06T07:06:03.687Z,14.35
2014-10-06T07:07:08.377Z,14.65
2014-10-06T07:08:13.363Z,14.4
2014-10-06T07:09:18.068Z,14.45
2014-10-06T07:10:22.758Z,14.45
2014-10-06T07:11:27.447Z,14.8
2014-10-06T07:12:32.450Z,14.85
2014-10-06T07:13:37.140Z,14.74
2014-10-06T07:14:41.845Z,14.34
2014-10-06T07:15:46.831Z,13.9
2014-10-06T07:16:51.521Z,14.1
2014-10-06T07:17:56.210Z,14.13
2014-10-06T07:19:00.915Z,14.5
2014-10-06T07:20:05.902Z,14.78
2014-10-06T07:21:10.591Z,15.15
2014-10-06T07:22:15.281Z,15.07
2014-10-06T07:23:19.987Z,14.7
2014-10-06T07:24:24.676Z,14.58
2014-10-06T07:25:29.381Z,14.63
2014-10-06T07:26:34.071Z,14.52
2014-10-06T07:27:39.057Z,14.5
2014-10-06T07:28:43.761Z,14.52
2014-10-06T07:29:48.732Z,15.68
2014-10-06T07:30:53.437Z,16.74
2014-10-06T07:31:58.128Z,16.8
2014-10-06T07:33:02.817Z,15.24
2014-10-06T07:34:07.821Z,14.56
2014-10-06T07:35:12.525Z,14.53
2014-10-06T07:36:16.527Z,14.57
2014-10-06T07:37:21.233Z,15.05
2014-10-06T07:38:25.923Z,14.84
2014-10-06T07:39:30.628Z,15.19
2014-10-06T07:40:35.614Z,15.49
2014-10-06T07:41:40.601Z,15.81
2014-10-06T07:42:45.290Z,15.64
2014-10-06T07:43:49.995Z,15.73
2014-10-06T07:44:54.686Z,15.43
2014-10-06T07:45:59.390Z,15.18
2014-10-06T07:47:04.080Z,14.88
2014-10-06T07:48:09.082Z,14.74
2014-10-06T07:49:13.788Z,14.48
2014-10-06T07:50:18.508Z,14.47
2014-10-06T07:51:23.198Z,14.45
2014-10-06T07:52:27.903Z,14.4
2014-10-06T07:53:32.592Z,14.45
2014-10-06T07:54:37.282Z,14.49
2014-10-06T07:55:42.268Z,14.24
2014-10-06T07:56:47.255Z,14.36
2014-10-06T07:57:51.960Z,14.32
2014-10-06T07:58:56.353Z,14.51
2014-10-06T08:00:01.042Z,14.15
2014-10-06T08:01:05.732Z,14.3
2014-10-06T08:02:10.719Z,14.4
2014-10-06T08:03:15.423Z,14.44
2014-10-06T08:04:20.113Z,14.59
2014-10-06T08:05:24.802Z,14.6
2014-10-06T08:06:29.493Z,14.75
2014-10-06T08:07:34.182Z,14.92
2014-10-06T08:08:39.167Z,14.94
2014-10-06T08:09:43.874Z,14.7
2014-10-06T08:10:48.579Z,14.76
2014-10-06T08:11:53.564Z,14.88
2014-10-06T08:12:58.567Z,14.96
2014-10-06T08:14:03.835Z,15.26
2014-10-06T08:15:08.540Z,15.09
2014-10-06T08:16:13.229Z,14.43
2014-10-06T08:17:17.919Z,14.73
2014-10-06T08:18:22.906Z,14.34
2014-10-06T08:19:27.610Z,14.64
2014-10-06T08:20:32.300Z,14.1
2014-10-06T08:21:37.302Z,14.32
2014-10-06T08:22:42.008Z,13.96
2014-10-06T08:23:46.696Z,14.48
2014-10-06T08:24:51.402Z,15.06
2014-10-06T08:25:56.389Z,15.22
2014-10-06T08:27:01.374Z,15.27
2014-10-06T08:28:06.065Z,15.28
2014-10-06T08:29:10.769Z,14.68
2014-10-06T08:30:15.319Z,15.17
2014-10-06T08:31:20.024Z,15.5
2014-10-06T08:32:24.713Z,15.48
2014-10-06T08:33:29.419Z,15.37
2014-10-06T08:34:34.108Z,15.23
2014-10-06T08:35:38.813Z,15.32
2014-10-06T08:36:43.503Z,15.58
2014-10-06T08:37:48.208Z,16.08
2014-10-06T08:38:52.897Z,16.02
2014-10-06T08:39:57.588Z,15.95
2014-10-06T08:41:02.573Z,15.75
2014-10-06T08:42:07.278Z,15.46
2014-10-06T08:43:11.968Z,15.48
2014-10-06T08:44:16.658Z,15.71
2014-10-06T08:45:21.363Z,15.95
2014-10-06T08:46:26.069Z,16.02
2014-10-06T08:47:30.758Z,15.68
2014-10-06T08:48:35.448Z,15.36
2014-10-06T08:49:39.451Z,15.64
2014-10-06T08:50:43.452Z,16.02
2014-10-06T08:51:48.142Z,16.2
2014-10-06T08:52:52.846Z,16.01
2014-10-06T08:53:57.833Z,16
2014-10-06T08:55:02.522Z,16.2
2014-10-06T08:56:07.212Z,16.46
2014-10-06T08:57:11.918Z,16.8
2014-10-06T08:58:16.623Z,16.63
2014-10-06T08:59:21.312Z,16.2
2014-10-06T09:00:26.002Z,16.3
2014-10-06T09:01:30.707Z,16.31
2014-10-06T09:02:35.396Z,15.9
2014-10-06T09:03:40.086Z,16.05
2014-10-06T09:04:44.791Z,16.18
2014-10-06T09:05:49.496Z,16.28
2014-10-06T09:06:54.186Z,16.35
2014-10-06T09:07:59.188Z,16.27
2014-10-06T09:09:03.878Z,16.31
2014-10-06T09:10:08.582Z,16.25
2014-10-06T09:11:13.570Z,16.25
2014-10-06T09:12:18.258Z,15.78
2014-10-06T09:13:22.963Z,15.93
2014-10-06T09:14:27.653Z,16.08
2014-10-06T09:15:32.359Z,16.24
2014-10-06T09:16:37.048Z,16.19
2014-10-06T09:17:41.754Z,16.18
2014-10-06T09:18:46.740Z,16.1
2014-10-06T09:19:51.445Z,16.22
2014-10-06T09:20:56.150Z,16.69
2014-10-06T09:22:00.855Z,16.37
2014-10-06T09:23:05.546Z,16.33
2014-10-06T09:24:10.235Z,16.78
2014-10-06T09:25:14.939Z,16.88
2014-10-06T09:26:19.926Z,16.92
2014-10-06T09:27:24.615Z,16.97
2014-10-06T09:28:29.305Z,16.95
2014-10-06T09:29:34.010Z,17.01
2014-10-06T09:30:38.699Z,17.02
2014-10-06T09:31:43.406Z,17.2
2014-10-06T09:32:48.095Z,16.97
2014-10-06T09:33:52.800Z,17.09
2014-10-06T09:34:57.505Z,17.11
2014-10-06T09:36:02.195Z,16.94
2014-10-06T09:37:07.181Z,16.86
2014-10-06T09:38:11.886Z,16.87
2014-10-06T09:39:16.576Z,16.76
2014-10-06T09:40:21.562Z,16.86
2014-10-06T09:41:26.549Z,16.95
2014-10-06T09:42:31.255Z,16.79
2014-10-06T09:43:35.943Z,16.93
2014-10-06T09:44:40.664Z,16.97
2014-10-06T09:45:45.354Z,16.96
2014-10-06T09:46:50.060Z,17
2014-10-06T09:47:55.062Z,16.8
2014-10-06T09:48:59.751Z,16.76
2014-10-06T09:50:04.737Z,16.92
2014-10-06T09:51:09.739Z,16.94
2014-10-06T09:52:14.445Z,16.94
2014-10-06T09:53:19.134Z,16.97
2014-10-06T09:54:24.136Z,17.03
2014-10-06T09:55:28.826Z,17.42
2014-10-06T09:56:33.531Z,17.41
2014-10-06T09:57:38.517Z,17.69
2014-10-06T09:58:43.222Z,17.6
2014-10-06T09:59:47.912Z,17.46
2014-10-06T10:00:52.617Z,17.52
2014-10-06T10:01:57.307Z,17.5
2014-10-06T10:03:02.011Z,17.64
2014-10-06T10:04:06.702Z,17.27
2014-10-06T10:05:11.407Z,17.32
2014-10-06T10:06:16.392Z,17.45
2014-10-06T10:07:21.098Z,17.66
2014-10-06T10:08:25.788Z,17.6
2014-10-06T10:09:30.493Z,17.46
2014-10-06T10:10:35.197Z,17.5
2014-10-06T10:11:39.888Z,17.65
2014-10-06T10:12:44.593Z,17.6
2014-10-06T10:13:49.579Z,17.62
2014-10-06T10:14:54.270Z,17.75
2014-10-06T10:15:58.974Z,17.6
2014-10-06T10:17:03.664Z,17.74
2014-10-06T10:18:08.369Z,17.92
2014-10-06T10:19:13.074Z,18.12
2014-10-06T10:20:17.764Z,17.83
2014-10-06T10:21:22.468Z,18.32
2014-10-06T10:22:27.173Z,17.89
2014-10-06T10:23:31.880Z,17.64
2014-10-06T10:24:36.866Z,17.21
2014-10-06T10:25:41.571Z,17.2
2014-10-06T10:26:46.261Z,17.39
2014-10-06T10:27:50.966Z,17.82
2014-10-06T10:28:55.656Z,18.14
2014-10-06T10:30:00.360Z,18.1
2014-10-06T10:31:05.066Z,17.7
2014-10-06T10:32:09.771Z,17.66
2014-10-06T10:33:14.476Z,18.12
2014-10-06T10:34:19.165Z,18.15
2014-10-06T10:35:23.856Z,18.08
2014-10-06T10:36:27.857Z,18.2
2014-10-06T10:37:32.563Z,18.26
2014-10-06T10:38:37.252Z,18.19
2014-10-06T10:39:41.942Z,18.14
2014-10-06T10:40:46.928Z,18.26
2014-10-06T10:41:51.633Z,17.96
2014-10-06T10:42:56.620Z,17.86
2014-10-06T10:44:01.325Z,17.69
2014-10-06T10:45:06.061Z,17.75
2014-10-06T10:46:10.766Z,17.88
2014-10-06T10:47:15.456Z,18.01
2014-10-06T10:48:20.145Z,18.04
2014-10-06T10:49:25.132Z,17.67
2014-10-06T10:50:29.837Z,17.55
2014-10-06T10:51:34.527Z,18.23
2014-10-06T10:52:39.231Z,18.78
2014-10-06T10:53:43.937Z,18.9
2014-10-06T10:54:48.627Z,19.06
2014-10-06T10:55:53.332Z,18.66
2014-10-06T10:56:58.037Z,18.48
2014-10-06T10:58:02.727Z,18.36
2014-10-06T10:59:07.415Z,18.28
2014-10-06T11:00:12.403Z,18.39
2014-10-06T11:01:17.389Z,18.41
2014-10-06T11:02:22.094Z,18.21
2014-10-06T11:03:26.800Z,18.29
2014-10-06T11:04:31.786Z,18.7
2014-10-06T11:05:36.475Z,18.8
2014-10-06T11:06:41.180Z,18.24
2014-10-06T11:07:45.886Z,18.2
2014-10-06T11:08:50.591Z,18.1
2014-10-06T11:09:55.281Z,18.06
2014-10-06T11:10:59.986Z,18.12
2014-10-06T11:12:04.972Z,17.82
2014-10-06T11:13:09.661Z,17.95
2014-10-06T11:14:14.367Z,18.34
2014-10-06T11:15:19.057Z,18.76
2014-10-06T11:16:23.762Z,17.86
2014-10-06T11:17:28.467Z,18.01
2014-10-06T11:18:33.172Z,18.7
2014-10-06T11:19:37.877Z,18.32
2014-10-06T11:20:42.567Z,18.37
2014-10-06T11:21:47.256Z,18.53
2014-10-06T11:22:51.961Z,17.61
2014-10-06T11:23:56.651Z,17.74
2014-10-06T11:25:01.356Z,17.66
2014-10-06T11:26:06.046Z,17.91
2014-10-06T11:27:10.751Z,18.22
2014-10-06T11:28:15.456Z,18.06
2014-10-06T11:29:20.162Z,18.31
2014-10-06T11:30:24.851Z,18.52
2014-10-06T11:31:29.556Z,17.99
2014-10-06T11:32:34.246Z,18.44
2014-10-06T11:33:39.232Z,18.77
2014-10-06T11:34:43.937Z,18.8
2014-10-06T11:35:48.629Z,18.82
2014-10-06T11:36:53.334Z,18.92
2014-10-06T11:37:58.038Z,18.77
2014-10-06T11:39:02.744Z,18.6
2014-10-06T11:40:07.449Z,19.11
2014-10-06T11:41:12.155Z,19.1
2014-10-06T11:42:16.861Z,18.87
2014-10-06T11:43:21.565Z,18.73
2014-10-06T11:44:26.551Z,18.91
2014-10-06T11:45:31.272Z,19.02
2014-10-06T11:46:35.961Z,19.05
2014-10-06T11:47:40.667Z,19.02
2014-10-06T11:48:45.373Z,18.88
2014-10-06T11:49:50.093Z,18.5
2014-10-06T11:50:54.799Z,18.82
2014-10-06T11:51:59.504Z,18.78
2014-10-06T11:53:04.208Z,18.1
2014-10-06T11:54:08.211Z,18.63
2014-10-06T11:55:12.916Z,18.86
2014-10-06T11:56:17.621Z,18.8
2014-10-06T11:57:22.326Z,18.96
2014-10-06T11:58:27.031Z,19.37
2014-10-06T11:59:31.736Z,19.48
2014-10-06T12:00:36.747Z,19.57
2014-10-06T12:01:41.498Z,19.34
2014-10-06T12:02:46.250Z,19.06
2014-10-06T12:03:51.000Z,18.78
2014-10-06T12:04:55.751Z,18.6
2014-10-06T12:06:00.487Z,18.69
2014-10-06T12:07:05.224Z,18.81
2014-10-06T12:08:09.946Z,18.98
2014-10-06T12:09:14.668Z,18.44
2014-10-06T12:10:19.389Z,18.42
2014-10-06T12:11:24.101Z,18.73
2014-10-06T12:12:28.812Z,19.14
2014-10-06T12:13:33.524Z,18.91
2014-10-06T12:14:38.235Z,18.61
2014-10-06T12:15:42.945Z,18.78
2014-10-06T12:16:47.949Z,19.01
2014-10-06T12:17:52.672Z,19.32
2014-10-06T12:18:57.660Z,19.1
2014-10-06T12:20:02.648Z,19.36
2014-10-06T12:21:07.355Z,19.27
2014-10-06T12:22:12.046Z,18.88
2014-10-06T12:23:17.048Z,18.55
2014-10-06T12:24:21.738Z,19.22
2014-10-06T12:25:26.460Z,19.3
2014-10-06T12:26:31.165Z,19.2
2014-10-06T12:27:36.153Z,19.18
2014-10-06T12:28:40.842Z,19.54
2014-10-06T12:29:45.564Z,19.18
2014-10-06T12:30:50.253Z,19.66
2014-10-06T12:31:54.959Z,19.42
2014-10-06T12:32:59.649Z,18.3
2014-10-06T12:34:04.353Z,18.11
2014-10-06T12:35:09.044Z,18.57
2014-10-06T12:36:14.030Z,18.96
2014-10-06T12:37:19.032Z,19.32
2014-10-06T12:38:23.722Z,19.45
2014-10-06T12:39:28.427Z,19.15
2014-10-06T12:40:33.116Z,18.79
2014-10-06T12:41:37.821Z,18.95
2014-10-06T12:42:42.526Z,19
2014-10-06T12:43:46.528Z,19.13
2014-10-06T12:44:51.234Z,19.37
2014-10-06T12:45:55.940Z,18.72
2014-10-06T12:47:00.644Z,18.96
2014-10-06T12:48:05.333Z,19.16
2014-10-06T12:49:10.039Z,19.22
2014-10-06T12:50:14.729Z,19.45
2014-10-06T12:51:19.434Z,19.45
2014-10-06T12:52:24.139Z,19.72
2014-10-06T12:53:28.844Z,19.73
2014-10-06T12:54:33.549Z,18.98
2014-10-06T12:55:38.536Z,18.83
2014-10-06T12:56:43.522Z,18.84
2014-10-06T12:57:48.227Z,19.17
2014-10-06T12:58:52.918Z,18.92
2014-10-06T12:59:57.920Z,18.51
2014-10-06T13:01:02.608Z,18.59
2014-10-06T13:02:07.314Z,19.11
2014-10-06T13:03:12.020Z,19.1
2014-10-06T13:04:16.709Z,19.06
2014-10-06T13:05:21.414Z,18.86
2014-10-06T13:06:26.119Z,19.05
2014-10-06T13:07:30.809Z,19.12
2014-10-06T13:08:35.530Z,18.99
2014-10-06T13:09:40.235Z,19.24
2014-10-06T13:10:44.924Z,19.16
2014-10-06T13:11:49.645Z,19.12
2014-10-06T13:12:54.334Z,18.9
2014-10-06T13:13:59.040Z,18.4
2014-10-06T13:15:04.027Z,18.85
2014-10-06T13:16:08.748Z,19.04
2014-10-06T13:17:13.453Z,19.42
2014-10-06T13:18:18.141Z,19.01
2014-10-06T13:19:23.144Z,18.78
2014-10-06T13:20:28.131Z,18.65
2014-10-06T13:21:32.819Z,18.53
2014-10-06T13:22:37.525Z,18.34
2014-10-06T13:23:42.215Z,18.84
2014-10-06T13:24:46.920Z,18.93
2014-10-06T13:25:51.625Z,18.74
2014-10-06T13:26:56.315Z,19.16
2014-10-06T13:28:01.302Z,19.66
2014-10-06T13:29:06.006Z,19.11
2014-10-06T13:30:10.696Z,19.59
2014-10-06T13:31:15.402Z,19.81
2014-10-06T13:32:20.106Z,20
2014-10-06T13:33:24.795Z,19.2
2014-10-06T13:34:29.501Z,19.23
2014-10-06T13:35:34.191Z,19.82
2014-10-06T13:36:38.912Z,20.18
2014-10-06T13:37:43.600Z,20.02
2014-10-06T13:38:48.306Z,19.83
2014-10-06T13:39:53.293Z,19.9
2014-10-06T13:40:57.998Z,20.03
2014-10-06T13:42:02.687Z,20.27
2014-10-06T13:43:06.706Z,20.03
2014-10-06T13:44:11.394Z,20.19
2014-10-06T13:45:16.100Z,20.09
2014-10-06T13:46:20.806Z,19.77
2014-10-06T13:47:25.510Z,19.75
2014-10-06T13:48:30.199Z,20.08
2014-10-06T13:49:35.201Z,19.7
2014-10-06T13:50:40.189Z,19.49
2014-10-06T13:51:44.894Z,19.47
2014-10-06T13:52:49.583Z,19.3
2014-10-06T13:53:54.288Z,19.44
2014-10-06T13:54:58.994Z,18.98
2014-10-06T13:56:03.980Z,18.94
2014-10-06T13:57:08.685Z,19.46
2014-10-06T13:58:13.390Z,19.46